createdAt,value
2023-11-23T00:00:00.931Z,85.77
2023-11-23T00:02:06.607Z,85.86
2023-11-23T00:04:08.846Z,85.93
2023-11-23T00:06:10.733Z,85.89
2023-11-23T00:08:13.337Z,85.90
2023-11-23T00:10:15.554Z,85.96
2023-11-23T00:12:17.357Z,86.16
2023-11-23T00:14:19.096Z,86.18
2023-11-23T00:16:20.813Z,85.98
2023-11-23T00:18:22.637Z,86.04
2023-11-23T00:20:24.571Z,86.16
2023-11-23T00:22:27.537Z,85.93
2023-11-23T00:24:29.498Z,86.25
2023-11-23T00:26:31.242Z,86.15
2023-11-23T00:28:32.956Z,86.10
2023-11-23T00:30:34.683Z,86.13
2023-11-23T00:32:36.662Z,86.16
2023-11-23T00:34:38.468Z,86.32
2023-11-23T00:36:40.319Z,86.46
2023-11-23T00:38:44.652Z,86.43
2023-11-23T00:40:46.362Z,86.49
2023-11-23T00:42:48.098Z,86.56
2023-11-23T00:44:49.871Z,86.57
2023-11-23T00:46:51.732Z,86.64
2023-11-23T00:48:55.011Z,86.78
2023-11-23T00:50:56.761Z,86.89
2023-11-23T00:52:58.498Z,86.84
2023-11-23T00:55:00.648Z,86.82
2023-11-23T00:57:02.368Z,87.13
2023-11-23T00:59:04.969Z,86.94
2023-11-23T01:01:06.877Z,87.11
2023-11-23T01:03:08.866Z,87.15
2023-11-23T01:05:16.583Z,87.07
2023-11-23T01:07:18.649Z,87.20
2023-11-23T01:09:20.380Z,87.22
2023-11-23T01:11:22.075Z,87.40
2023-11-23T01:13:23.817Z,87.42
2023-11-23T01:15:25.628Z,87.45
2023-11-23T01:17:27.352Z,87.23
2023-11-23T01:19:29.050Z,87.28
2023-11-23T01:21:30.896Z,87.36
2023-11-23T01:23:32.635Z,87.43
2023-11-23T01:25:34.390Z,87.56
2023-11-23T01:27:36.888Z,87.42
2023-11-23T01:29:38.607Z,87.33
2023-11-23T01:31:40.340Z,87.46
2023-11-23T01:33:42.217Z,87.38
2023-11-23T01:35:44.024Z,87.57
2023-11-23T01:37:45.754Z,87.35
2023-11-23T01:39:47.472Z,87.50
2023-11-23T01:41:49.330Z,87.40
2023-11-23T01:43:51.133Z,87.53
2023-11-23T01:45:52.887Z,87.63
2023-11-23T01:47:55.043Z,87.53
2023-11-23T01:49:58.925Z,87.54
2023-11-23T01:52:00.703Z,87.71
2023-11-23T01:54:02.621Z,87.60
2023-11-23T01:56:04.857Z,87.43
2023-11-23T01:58:10.073Z,87.49
2023-11-23T02:00:12.274Z,87.66
2023-11-23T02:02:14.529Z,87.53
2023-11-23T02:04:17.512Z,87.63
2023-11-23T02:06:21.230Z,87.41
2023-11-23T02:08:23.147Z,87.67
2023-11-23T02:10:24.960Z,87.52
2023-11-23T02:12:27.975Z,87.60
2023-11-23T02:14:32.475Z,87.72
2023-11-23T02:16:35.735Z,87.62
2023-11-23T02:18:39.131Z,87.63
2023-11-23T02:20:43.060Z,87.53
2023-11-23T02:22:44.773Z,87.79
2023-11-23T02:24:46.635Z,87.50
2023-11-23T02:26:48.536Z,87.59
2023-11-23T02:28:50.326Z,87.53
2023-11-23T02:30:52.199Z,87.65
2023-11-23T02:32:55.131Z,87.29
2023-11-23T02:34:56.905Z,87.64
2023-11-23T02:36:58.660Z,87.65
2023-11-23T02:39:01.212Z,87.58
2023-11-23T02:41:02.947Z,87.71
2023-11-23T02:43:06.789Z,87.77
2023-11-23T02:45:09.242Z,87.59
2023-11-23T02:47:11.040Z,87.69
2023-11-23T02:49:12.764Z,87.68
2023-11-23T02:51:16.038Z,87.80
2023-11-23T02:53:31.451Z,87.68
2023-11-23T02:55:33.464Z,87.92
2023-11-23T02:57:35.896Z,87.78
2023-11-23T02:59:37.656Z,87.80
2023-11-23T03:01:39.420Z,87.96
2023-11-23T03:03:41.302Z,87.81
2023-11-23T03:05:43.255Z,87.81
2023-11-23T03:07:44.991Z,87.97
2023-11-23T03:09:47.058Z,87.85
2023-11-23T03:11:48.768Z,87.87
2023-11-23T03:13:50.508Z,87.98
2023-11-23T03:15:52.372Z,87.98
2023-11-23T03:17:54.301Z,87.80
2023-11-23T03:19:56.505Z,87.97
2023-11-23T03:21:59.099Z,87.87
2023-11-23T03:24:01.004Z,88.24
2023-11-23T03:26:03.129Z,88.04
2023-11-23T03:28:07.782Z,88.01
2023-11-23T03:30:10.892Z,88.06
2023-11-23T03:32:12.666Z,88.12
2023-11-23T03:34:14.408Z,88.09
2023-11-23T03:36:16.186Z,88.14
2023-11-23T03:38:18.616Z,87.97
2023-11-23T03:40:20.366Z,87.95
2023-11-23T03:42:22.309Z,88.11
2023-11-23T03:44:24.105Z,88.00
2023-11-23T03:46:25.881Z,87.76
2023-11-23T03:48:27.729Z,88.20
2023-11-23T03:50:29.490Z,88.16
2023-11-23T03:52:31.185Z,88.23
2023-11-23T03:54:32.985Z,88.02
2023-11-23T03:56:38.988Z,88.38
2023-11-23T03:58:40.850Z,88.27
2023-11-23T04:00:42.637Z,88.58
2023-11-23T04:02:45.131Z,88.15
2023-11-23T04:04:46.898Z,88.08
2023-11-23T04:06:48.630Z,88.23
2023-11-23T04:08:50.367Z,88.26
2023-11-23T04:10:52.628Z,88.08
2023-11-23T04:12:54.350Z,88.49
2023-11-23T04:14:57.512Z,88.19
2023-11-23T04:16:59.307Z,88.30
2023-11-23T04:19:01.064Z,88.06
2023-11-23T04:21:02.869Z,88.08
2023-11-23T04:23:04.642Z,88.16
2023-11-23T04:25:06.922Z,88.09
2023-11-23T04:27:10.397Z,87.89
2023-11-23T04:29:12.166Z,87.81
2023-11-23T04:31:13.901Z,88.08
2023-11-23T04:33:15.722Z,88.03
2023-11-23T04:35:17.481Z,88.02
2023-11-23T04:37:19.565Z,87.81
2023-11-23T04:39:21.420Z,87.67
2023-11-23T04:41:23.205Z,87.53
2023-11-23T04:43:24.973Z,87.43
2023-11-23T04:45:26.798Z,87.45
2023-11-23T04:47:28.580Z,87.43
2023-11-23T04:49:30.307Z,87.43
2023-11-23T04:51:32.048Z,87.44
2023-11-23T04:53:33.778Z,87.27
2023-11-23T04:55:36.558Z,87.19
2023-11-23T04:57:38.339Z,86.96
2023-11-23T04:59:40.256Z,86.84
2023-11-23T05:01:42.077Z,86.92
2023-11-23T05:03:43.956Z,86.84
2023-11-23T05:05:45.772Z,86.60
2023-11-23T05:07:47.906Z,86.51
2023-11-23T05:09:49.673Z,86.60
2023-11-23T05:11:51.381Z,86.42
2023-11-23T05:13:53.248Z,86.20
2023-11-23T05:15:55.007Z,86.39
2023-11-23T05:17:56.871Z,85.99
2023-11-23T05:19:58.657Z,85.88
2023-11-23T05:22:00.488Z,85.97
2023-11-23T05:24:04.553Z,85.59
2023-11-23T05:26:06.826Z,85.78
2023-11-23T05:28:08.594Z,85.53
2023-11-23T05:30:10.746Z,85.63
2023-11-23T05:32:12.494Z,85.28
2023-11-23T05:34:14.312Z,85.32
2023-11-23T05:36:16.562Z,85.12
2023-11-23T05:38:18.344Z,85.21
2023-11-23T05:40:20.084Z,85.08
2023-11-23T05:42:21.828Z,85.05
2023-11-23T05:44:23.561Z,85.03
2023-11-23T05:46:25.513Z,84.73
2023-11-23T05:48:27.427Z,84.75
2023-11-23T05:50:29.233Z,84.80
2023-11-23T05:52:31.510Z,84.60
2023-11-23T05:54:33.325Z,84.62
2023-11-23T05:56:35.243Z,84.65
2023-11-23T05:58:37.101Z,84.67
2023-11-23T06:00:38.844Z,84.45
2023-11-23T06:02:42.540Z,84.19
2023-11-23T06:04:44.464Z,84.32
2023-11-23T06:06:46.257Z,84.27
2023-11-23T06:08:48.462Z,84.10
2023-11-23T06:10:52.309Z,84.02
2023-11-23T06:12:54.100Z,83.87
2023-11-23T06:14:55.969Z,83.82
2023-11-23T06:16:57.789Z,83.66
2023-11-23T06:19:03.373Z,83.54
2023-11-23T06:21:06.604Z,83.47
2023-11-23T06:23:08.367Z,83.58
2023-11-23T06:25:10.103Z,83.51
2023-11-23T06:27:11.953Z,83.58
2023-11-23T06:29:14.717Z,83.19
2023-11-23T06:31:16.526Z,83.57
2023-11-23T06:33:18.540Z,83.60
2023-11-23T06:35:20.346Z,83.59
2023-11-23T06:37:22.045Z,83.90
2023-11-23T06:39:26.707Z,83.67
2023-11-23T06:41:28.487Z,83.74
2023-11-23T06:43:30.706Z,83.99
2023-11-23T06:45:32.560Z,84.00
2023-11-23T06:47:34.335Z,84.37
2023-11-23T06:49:36.430Z,84.70
2023-11-23T06:51:38.394Z,84.82
2023-11-23T06:53:45.073Z,84.79
2023-11-23T06:55:46.846Z,85.01
2023-11-23T06:57:48.543Z,85.51
2023-11-23T06:59:50.376Z,85.31
2023-11-23T07:01:52.186Z,85.74
2023-11-23T07:03:54.032Z,85.48
2023-11-23T07:05:55.837Z,85.70
2023-11-23T07:07:57.896Z,85.54
2023-11-23T07:09:59.594Z,85.84
2023-11-23T07:12:01.584Z,85.52
2023-11-23T07:14:03.409Z,85.51
2023-11-23T07:16:06.318Z,85.92
2023-11-23T07:18:08.180Z,85.76
2023-11-23T07:20:13.817Z,86.01
2023-11-23T07:22:15.570Z,85.80
2023-11-23T07:24:17.957Z,85.78
2023-11-23T07:26:19.798Z,85.46
2023-11-23T07:28:26.778Z,85.46
2023-11-23T07:30:28.564Z,85.32
2023-11-23T07:32:30.571Z,85.73
2023-11-23T07:34:32.274Z,85.29
2023-11-23T07:36:34.222Z,85.31
2023-11-23T07:38:35.993Z,85.25
2023-11-23T07:40:37.728Z,85.17
2023-11-23T07:42:44.458Z,85.15
2023-11-23T07:44:47.737Z,84.83
2023-11-23T07:46:49.538Z,84.94
2023-11-23T07:48:54.115Z,84.83
2023-11-23T07:50:56.143Z,84.90
2023-11-23T07:52:58.448Z,84.65
2023-11-23T07:55:00.205Z,84.67
2023-11-23T07:57:01.969Z,84.26
2023-11-23T07:59:03.921Z,84.41
2023-11-23T08:01:06.000Z,84.12
2023-11-23T08:03:07.939Z,84.24
2023-11-23T08:05:10.619Z,83.76
2023-11-23T08:07:12.458Z,83.83
2023-11-23T08:09:17.529Z,83.44
2023-11-23T08:11:19.496Z,83.44
2023-11-23T08:13:21.678Z,82.97
2023-11-23T08:15:23.396Z,83.01
2023-11-23T08:17:25.162Z,82.75
2023-11-23T08:19:26.954Z,82.76
2023-11-23T08:21:29.178Z,82.72
2023-11-23T08:23:31.360Z,82.49
2023-11-23T08:25:33.221Z,82.41
2023-11-23T08:27:36.572Z,81.97
2023-11-23T08:29:39.695Z,81.66
2023-11-23T08:31:42.653Z,81.47
2023-11-23T08:33:44.394Z,80.96
2023-11-23T08:35:49.860Z,80.95
2023-11-23T08:37:51.575Z,80.81
2023-11-23T08:39:53.358Z,80.77
2023-11-23T08:41:55.436Z,80.38
2023-11-23T08:43:57.425Z,80.07
2023-11-23T08:45:59.368Z,80.35
2023-11-23T08:48:02.177Z,80.02
2023-11-23T08:50:04.411Z,79.84
2023-11-23T08:52:06.278Z,79.60
2023-11-23T08:54:09.624Z,79.62
2023-11-23T08:56:14.383Z,79.33
2023-11-23T08:58:16.426Z,79.46
2023-11-23T09:00:25.216Z,79.33
2023-11-23T09:02:27.242Z,79.17
2023-11-23T09:04:36.731Z,79.04
2023-11-23T09:06:45.126Z,79.10
2023-11-23T09:08:46.872Z,79.07
2023-11-23T09:10:49.913Z,79.05
2023-11-23T09:12:52.160Z,79.05
2023-11-23T09:14:58.390Z,78.69
2023-11-23T09:17:00.257Z,78.91
2023-11-23T09:19:02.646Z,78.47
2023-11-23T09:21:04.911Z,78.01
2023-11-23T09:23:07.426Z,78.54
2023-11-23T09:25:09.536Z,78.37
2023-11-23T09:27:16.062Z,78.57
2023-11-23T09:29:17.892Z,78.41
2023-11-23T09:31:19.754Z,78.23
2023-11-23T09:33:24.671Z,78.32
2023-11-23T09:35:27.720Z,78.03
2023-11-23T09:37:29.685Z,78.08
2023-11-23T09:39:32.054Z,77.88
2023-11-23T09:41:36.081Z,78.24
2023-11-23T09:43:37.804Z,78.08
2023-11-23T09:45:40.189Z,77.78
2023-11-23T09:47:42.786Z,77.99
2023-11-23T09:49:45.837Z,77.60
2023-11-23T09:51:50.202Z,77.66
2023-11-23T09:53:56.275Z,77.28
2023-11-23T09:56:01.359Z,77.01
2023-11-23T09:58:06.301Z,77.15
2023-11-23T10:00:10.861Z,76.92
2023-11-23T10:02:15.286Z,76.71
2023-11-23T10:04:17.472Z,76.63
2023-11-23T10:06:19.381Z,76.21
2023-11-23T10:08:21.192Z,76.62
2023-11-23T10:10:26.339Z,76.10
2023-11-23T10:12:29.209Z,76.09
2023-11-23T10:14:31.142Z,76.33
2023-11-23T10:16:36.605Z,76.00
2023-11-23T10:18:39.286Z,75.99
2023-11-23T10:20:48.105Z,76.04
2023-11-23T10:22:50.876Z,76.00
2023-11-23T10:24:52.854Z,75.88
2023-11-23T10:26:55.146Z,75.67
2023-11-23T10:28:57.047Z,75.52
2023-11-23T10:31:03.884Z,75.70
2023-11-23T10:33:06.802Z,75.11
2023-11-23T10:35:11.159Z,75.49
2023-11-23T10:37:15.574Z,75.42
2023-11-23T10:39:20.383Z,75.47
2023-11-23T10:41:22.845Z,75.11
2023-11-23T10:43:26.834Z,75.03
2023-11-23T10:45:29.675Z,75.08
2023-11-23T10:47:33.599Z,74.68
2023-11-23T10:49:36.062Z,75.22
2023-11-23T10:51:38.862Z,75.10
2023-11-23T10:53:43.308Z,74.71
2023-11-23T10:55:45.439Z,74.81
2023-11-23T10:57:55.900Z,74.66
2023-11-23T10:59:57.942Z,74.68
2023-11-23T11:02:00.162Z,74.49
2023-11-23T11:04:02.257Z,74.57
2023-11-23T11:06:12.290Z,73.89
2023-11-23T11:08:22.322Z,74.14
2023-11-23T11:10:24.164Z,74.44
2023-11-23T11:12:36.841Z,74.44
2023-11-23T11:14:41.161Z,74.33
2023-11-23T11:16:43.380Z,73.90
2023-11-23T11:18:55.589Z,73.63
2023-11-23T11:21:15.009Z,73.96
2023-11-23T11:23:16.757Z,73.86
2023-11-23T11:25:18.607Z,73.79
2023-11-23T11:27:20.505Z,73.70
2023-11-23T11:29:22.559Z,73.52
2023-11-23T11:31:36.715Z,73.67
2023-11-23T11:33:42.041Z,73.39
2023-11-23T11:35:48.782Z,73.29
2023-11-23T11:37:51.962Z,73.33
2023-11-23T11:39:53.909Z,73.50
2023-11-23T11:42:01.152Z,73.80
2023-11-23T11:44:05.443Z,73.50
2023-11-23T11:46:08.374Z,73.27
2023-11-23T11:48:10.913Z,73.57
2023-11-23T11:50:14.303Z,73.82
2023-11-23T11:52:16.537Z,73.87
2023-11-23T11:54:23.324Z,73.42
2023-11-23T11:56:25.093Z,73.50
2023-11-23T11:58:28.193Z,73.54
2023-11-23T12:00:34.997Z,73.18
2023-11-23T12:02:36.908Z,73.32
2023-11-23T12:04:40.008Z,73.38
2023-11-23T12:06:41.956Z,73.22
2023-11-23T12:08:44.456Z,73.37
2023-11-23T12:10:46.480Z,72.88
2023-11-23T12:12:49.148Z,73.00
2023-11-23T12:14:51.142Z,73.01
2023-11-23T12:16:54.194Z,73.29
2023-11-23T12:18:56.568Z,73.06
2023-11-23T12:20:59.321Z,73.14
2023-11-23T12:23:04.470Z,72.84
2023-11-23T12:25:07.165Z,73.51
2023-11-23T12:27:08.955Z,73.11
2023-11-23T12:29:10.714Z,72.80
2023-11-23T12:31:14.091Z,73.20
2023-11-23T12:33:16.206Z,73.50
2023-11-23T12:35:18.017Z,73.65
2023-11-23T12:37:20.684Z,73.46
2023-11-23T12:39:22.522Z,73.24
2023-11-23T12:41:24.367Z,73.08
2023-11-23T12:43:26.453Z,73.08
2023-11-23T12:45:28.683Z,73.46
2023-11-23T12:47:31.604Z,73.37
2023-11-23T12:49:33.481Z,73.14
2023-11-23T12:51:35.263Z,73.54
2023-11-23T12:53:37.003Z,73.85
2023-11-23T12:55:38.919Z,73.64
2023-11-23T12:57:40.880Z,73.69
2023-11-23T12:59:42.687Z,73.55
2023-11-23T13:01:44.515Z,73.80
2023-11-23T13:03:46.320Z,74.07
2023-11-23T13:05:51.049Z,74.79
2023-11-23T13:07:52.792Z,75.66
2023-11-23T13:09:54.593Z,76.38
2023-11-23T13:11:58.321Z,77.34
2023-11-23T13:14:00.255Z,77.81
2023-11-23T13:16:02.606Z,77.59
2023-11-23T13:18:05.843Z,77.72
2023-11-23T13:20:11.645Z,77.40
2023-11-23T13:22:13.827Z,76.77
2023-11-23T13:24:15.658Z,76.54
2023-11-23T13:26:17.430Z,76.98
2023-11-23T13:28:19.897Z,76.91
2023-11-23T13:30:21.619Z,76.88
2023-11-23T13:32:23.439Z,77.52
2023-11-23T13:34:25.143Z,77.38
2023-11-23T13:36:26.914Z,77.84
2023-11-23T13:38:28.798Z,77.88
2023-11-23T13:40:30.527Z,78.86
2023-11-23T13:42:33.090Z,79.51
2023-11-23T13:44:35.662Z,79.77
2023-11-23T13:46:38.514Z,79.61
2023-11-23T13:48:40.336Z,80.51
2023-11-23T13:50:43.882Z,80.61
2023-11-23T13:52:46.283Z,81.11
2023-11-23T13:54:49.202Z,81.47
2023-11-23T13:56:52.132Z,81.62
2023-11-23T13:58:53.988Z,82.26
2023-11-23T14:00:55.700Z,82.21
2023-11-23T14:02:57.615Z,82.81
2023-11-23T14:04:59.357Z,82.93
2023-11-23T14:07:01.869Z,83.24
2023-11-23T14:09:05.032Z,83.35
2023-11-23T14:11:07.470Z,83.77
2023-11-23T14:13:09.556Z,83.62
2023-11-23T14:15:13.229Z,83.75
2023-11-23T14:17:15.961Z,84.40
2023-11-23T14:19:18.594Z,84.04
2023-11-23T14:21:20.560Z,84.31
2023-11-23T14:23:22.519Z,84.59
2023-11-23T14:25:24.228Z,84.46
2023-11-23T14:27:29.396Z,84.47
2023-11-23T14:29:33.747Z,84.70
2023-11-23T14:31:35.520Z,84.71
2023-11-23T14:33:37.259Z,84.69
2023-11-23T14:35:39.309Z,84.82
2023-11-23T14:37:42.107Z,85.11
2023-11-23T14:39:46.917Z,84.94
2023-11-23T14:41:48.708Z,84.98
2023-11-23T14:43:50.916Z,85.02
2023-11-23T14:45:52.758Z,85.04
2023-11-23T14:47:54.872Z,85.22
2023-11-23T14:49:56.629Z,85.46
2023-11-23T14:51:58.388Z,85.68
2023-11-23T14:54:09.994Z,85.42
2023-11-23T14:56:14.988Z,85.55
2023-11-23T14:58:17.451Z,85.68
2023-11-23T15:00:19.797Z,85.66
2023-11-23T15:02:23.190Z,85.48
2023-11-23T15:04:25.328Z,85.74
2023-11-23T15:06:27.677Z,85.62
2023-11-23T15:08:29.418Z,86.07
2023-11-23T15:10:32.603Z,85.86
2023-11-23T15:12:34.471Z,86.04
2023-11-23T15:14:36.353Z,85.94
2023-11-23T15:16:38.124Z,86.03
2023-11-23T15:18:40.143Z,86.17
2023-11-23T15:20:41.968Z,86.15
2023-11-23T15:22:44.039Z,86.36
2023-11-23T15:24:46.056Z,86.34
2023-11-23T15:26:48.551Z,86.67
2023-11-23T15:28:50.645Z,86.50
2023-11-23T15:30:52.436Z,86.61
2023-11-23T15:32:58.100Z,86.63
2023-11-23T15:35:00.152Z,86.52
2023-11-23T15:37:02.199Z,86.53
2023-11-23T15:39:08.200Z,86.50
2023-11-23T15:41:10.238Z,86.36
2023-11-23T15:43:12.729Z,86.35
2023-11-23T15:45:16.274Z,86.28
2023-11-23T15:47:18.107Z,86.31
2023-11-23T15:49:19.920Z,86.54
2023-11-23T15:51:21.971Z,86.41
2023-11-23T15:53:23.902Z,86.32
2023-11-23T15:55:26.249Z,86.62
2023-11-23T15:57:28.764Z,86.31
2023-11-23T15:59:30.768Z,86.45
2023-11-23T16:01:32.865Z,86.45
2023-11-23T16:03:34.694Z,86.50
2023-11-23T16:05:36.476Z,86.32
2023-11-23T16:07:38.507Z,86.26
2023-11-23T16:09:40.292Z,86.17
2023-11-23T16:11:45.663Z,86.45
2023-11-23T16:13:47.500Z,86.48
2023-11-23T16:15:51.989Z,86.74
2023-11-23T16:17:54.002Z,86.42
2023-11-23T16:19:55.998Z,86.21
2023-11-23T16:21:57.738Z,86.41
2023-11-23T16:23:59.649Z,86.25
2023-11-23T16:26:01.351Z,86.32
2023-11-23T16:28:04.816Z,86.15
2023-11-23T16:30:07.740Z,85.88
2023-11-23T16:32:10.270Z,85.88
2023-11-23T16:34:14.417Z,85.93
2023-11-23T16:36:30.176Z,86.08
2023-11-23T16:38:38.588Z,86.15
2023-11-23T16:40:40.289Z,86.20
2023-11-23T16:42:43.452Z,86.36
2023-11-23T16:44:45.448Z,86.38
2023-11-23T16:46:47.289Z,86.59
2023-11-23T16:48:49.105Z,86.50
2023-11-23T16:50:50.986Z,86.65
2023-11-23T16:52:52.725Z,86.52
2023-11-23T16:54:54.514Z,86.69
2023-11-23T16:56:56.296Z,86.68
2023-11-23T16:58:58.254Z,86.85
2023-11-23T17:01:03.179Z,86.98
2023-11-23T17:03:06.536Z,86.87
2023-11-23T17:05:10.513Z,86.77
2023-11-23T17:07:13.801Z,86.60
2023-11-23T17:09:15.835Z,86.78
2023-11-23T17:11:18.699Z,86.84
2023-11-23T17:13:22.687Z,86.81
2023-11-23T17:15:24.419Z,86.49
2023-11-23T17:17:26.180Z,86.37
2023-11-23T17:19:27.976Z,85.95
2023-11-23T17:21:31.169Z,86.25
2023-11-23T17:23:35.511Z,85.70
2023-11-23T17:25:40.547Z,85.48
2023-11-23T17:27:48.585Z,84.96
2023-11-23T17:29:50.854Z,84.40
2023-11-23T17:31:58.554Z,84.48
2023-11-23T17:34:00.838Z,83.64
2023-11-23T17:36:03.000Z,83.41
2023-11-23T17:38:07.027Z,83.05
2023-11-23T17:40:09.726Z,82.58
2023-11-23T17:42:13.028Z,81.80
2023-11-23T17:44:15.825Z,81.86
2023-11-23T17:46:17.761Z,81.52
2023-11-23T17:48:20.232Z,81.32
2023-11-23T17:50:22.265Z,80.41
2023-11-23T17:52:24.007Z,80.30
2023-11-23T17:54:29.821Z,80.17
2023-11-23T17:56:34.386Z,79.65
2023-11-23T17:58:40.670Z,79.56
2023-11-23T18:00:42.545Z,79.79
2023-11-23T18:02:44.794Z,80.02
2023-11-23T18:04:46.784Z,80.44
2023-11-23T18:06:48.856Z,81.13
2023-11-23T18:08:52.897Z,81.78
2023-11-23T18:10:55.010Z,81.81
2023-11-23T18:12:56.765Z,82.14
2023-11-23T18:14:58.519Z,82.22
2023-11-23T18:17:00.316Z,82.54
2023-11-23T18:19:02.700Z,82.77
2023-11-23T18:21:04.852Z,82.88
2023-11-23T18:23:07.130Z,82.87
2023-11-23T18:25:09.337Z,83.08
2023-11-23T18:27:13.422Z,83.47
2023-11-23T18:29:15.678Z,83.58
2023-11-23T18:31:19.964Z,83.79
2023-11-23T18:33:22.825Z,83.83
2023-11-23T18:35:24.898Z,84.17
2023-11-23T18:37:26.614Z,83.49
2023-11-23T18:39:28.797Z,83.66
2023-11-23T18:41:30.631Z,83.69
2023-11-23T18:43:32.739Z,83.01
2023-11-23T18:45:34.984Z,82.95
2023-11-23T18:47:37.060Z,82.98
2023-11-23T18:49:38.820Z,83.00
2023-11-23T18:51:40.559Z,83.07
2023-11-23T18:53:42.649Z,83.16
2023-11-23T18:55:44.917Z,83.61
2023-11-23T18:57:46.869Z,83.85
2023-11-23T18:59:50.250Z,83.85
2023-11-23T19:01:52.962Z,83.71
2023-11-23T19:03:55.793Z,83.77
2023-11-23T19:05:59.646Z,83.66
2023-11-23T19:08:01.494Z,83.60
2023-11-23T19:10:03.822Z,83.72
2023-11-23T19:12:05.901Z,83.74
2023-11-23T19:14:07.756Z,83.66
2023-11-23T19:16:10.153Z,83.47
2023-11-23T19:18:12.482Z,83.40
2023-11-23T19:20:14.593Z,83.38
2023-11-23T19:22:17.456Z,83.27
2023-11-23T19:24:19.433Z,83.24
2023-11-23T19:26:21.487Z,83.24
2023-11-23T19:28:23.348Z,83.11
2023-11-23T19:30:27.230Z,83.04
2023-11-23T19:32:29.602Z,82.86
2023-11-23T19:34:31.631Z,82.99
2023-11-23T19:36:35.252Z,83.06
2023-11-23T19:38:37.647Z,83.08
2023-11-23T19:40:39.760Z,83.22
2023-11-23T19:42:44.688Z,83.30
2023-11-23T19:44:47.752Z,83.47
2023-11-23T19:46:49.708Z,83.44
2023-11-23T19:48:51.867Z,83.65
2023-11-23T19:50:53.990Z,83.75
2023-11-23T19:52:57.809Z,83.49
2023-11-23T19:55:00.775Z,83.17
2023-11-23T19:57:02.495Z,82.97
2023-11-23T19:59:06.056Z,82.66
2023-11-23T20:01:08.562Z,82.43
2023-11-23T20:03:10.365Z,82.10
2023-11-23T20:05:12.352Z,82.15
2023-11-23T20:07:14.122Z,81.79
2023-11-23T20:09:18.874Z,81.98
2023-11-23T20:11:20.593Z,82.03
2023-11-23T20:13:22.476Z,82.03
2023-11-23T20:15:24.234Z,81.96
2023-11-23T20:17:27.128Z,81.97
2023-11-23T20:19:32.007Z,82.02
2023-11-23T20:21:34.651Z,81.99
2023-11-23T20:23:36.485Z,82.06
2023-11-23T20:25:38.179Z,82.12
2023-11-23T20:27:40.184Z,82.12
2023-11-23T20:29:42.007Z,82.28
2023-11-23T20:31:44.526Z,82.21
2023-11-23T20:33:46.465Z,82.29
2023-11-23T20:35:48.742Z,82.06
2023-11-23T20:37:53.498Z,81.88
2023-11-23T20:39:56.937Z,81.92
2023-11-23T20:41:59.372Z,82.04
2023-11-23T20:44:01.113Z,80.97
2023-11-23T20:46:05.240Z,80.92
2023-11-23T20:48:07.244Z,81.56
2023-11-23T20:50:10.052Z,78.19
2023-11-23T20:52:13.552Z,77.52
2023-11-23T20:54:15.473Z,75.99
2023-11-23T20:56:17.538Z,76.26
2023-11-23T20:58:21.460Z,75.62
2023-11-23T21:00:24.334Z,76.07
2023-11-23T21:02:26.498Z,76.08
2023-11-23T21:04:31.164Z,75.56
2023-11-23T21:06:35.275Z,75.83
2023-11-23T21:08:37.437Z,75.94
2023-11-23T21:10:39.557Z,75.90
2023-11-23T21:12:42.097Z,75.76
2023-11-23T21:14:46.244Z,75.99
2023-11-23T21:16:48.053Z,76.13
2023-11-23T21:18:49.941Z,75.71
2023-11-23T21:20:51.696Z,76.06
2023-11-23T21:22:53.468Z,75.96
2023-11-23T21:24:55.225Z,76.15
2023-11-23T21:26:58.292Z,76.42
2023-11-23T21:29:00.510Z,76.24
2023-11-23T21:31:03.428Z,76.50
2023-11-23T21:33:06.731Z,76.96
2023-11-23T21:35:11.742Z,77.00
2023-11-23T21:37:13.815Z,77.02
2023-11-23T21:39:15.663Z,77.37
2023-11-23T21:41:17.747Z,77.61
2023-11-23T21:43:19.476Z,77.85
2023-11-23T21:45:21.497Z,78.29
2023-11-23T21:47:23.273Z,78.34
2023-11-23T21:49:25.008Z,78.24
2023-11-23T21:51:30.268Z,78.65
2023-11-23T21:53:33.777Z,78.94
2023-11-23T21:55:38.781Z,78.63
2023-11-23T21:57:41.412Z,78.70
2023-11-23T21:59:43.226Z,78.36
2023-11-23T22:01:45.028Z,78.59
2023-11-23T22:03:50.570Z,78.63
2023-11-23T22:05:53.288Z,78.34
2023-11-23T22:07:55.083Z,78.28
2023-11-23T22:09:57.053Z,77.68
2023-11-23T22:11:59.044Z,77.79
2023-11-23T22:14:00.750Z,78.19
2023-11-23T22:16:02.491Z,77.95
2023-11-23T22:18:04.472Z,77.64
2023-11-23T22:20:09.758Z,77.67
2023-11-23T22:22:12.003Z,77.51
2023-11-23T22:24:16.201Z,77.37
2023-11-23T22:26:18.256Z,77.14
2023-11-23T22:28:20.363Z,76.89
2023-11-23T22:30:22.308Z,76.88
2023-11-23T22:32:27.501Z,76.94
2023-11-23T22:34:29.763Z,76.83
2023-11-23T22:36:31.848Z,76.85
2023-11-23T22:38:33.863Z,76.74
2023-11-23T22:40:36.522Z,76.31
2023-11-23T22:42:39.747Z,76.02
2023-11-23T22:44:42.075Z,75.86
2023-11-23T22:46:44.199Z,76.01
2023-11-23T22:48:51.898Z,75.63
2023-11-23T22:50:53.812Z,75.62
2023-11-23T22:52:58.687Z,75.71
2023-11-23T22:55:01.370Z,75.49
2023-11-23T22:57:04.584Z,75.50
2023-11-23T22:59:06.378Z,75.41
2023-11-23T23:01:08.340Z,74.79
2023-11-23T23:03:10.237Z,75.01
2023-11-23T23:05:12.285Z,74.69
2023-11-23T23:07:14.043Z,74.90
2023-11-23T23:09:17.109Z,75.27
2023-11-23T23:11:22.299Z,75.59
2023-11-23T23:13:28.722Z,75.69
2023-11-23T23:15:30.832Z,75.87
2023-11-23T23:17:35.766Z,75.92
2023-11-23T23:19:40.215Z,75.96
2023-11-23T23:21:45.952Z,75.64
2023-11-23T23:23:50.329Z,75.06
2023-11-23T23:25:54.469Z,74.60
2023-11-23T23:27:56.667Z,73.88
2023-11-23T23:29:58.573Z,73.47
2023-11-23T23:32:02.961Z,73.19
2023-11-23T23:34:05.692Z,72.87
2023-11-23T23:36:14.170Z,72.82
2023-11-23T23:38:15.970Z,73.10
2023-11-23T23:40:17.810Z,73.42
2023-11-23T23:42:20.859Z,73.60
2023-11-23T23:44:23.567Z,73.71
2023-11-23T23:46:25.354Z,73.69
2023-11-23T23:48:27.208Z,73.81
2023-11-23T23:50:31.881Z,73.73
2023-11-23T23:52:37.664Z,73.29
2023-11-23T23:54:40.295Z,73.13
2023-11-23T23:56:42.051Z,73.19
2023-11-23T23:58:43.985Z,73.06
